Time;durP1;ratioP1;P1;durP2;ratioP2;P2;SDS_P1;SDS_P2;PMS_P1;PMS_P2;Temp;Humidity;BMP_temperature;BMP_pressure;BME280_temperature;BME280_humidity;BME280_pressure;Samples;Min_cycle;Max_cycle;Signal;HPM_P1;HPM_P2
2022/10/29 00:10:23;;;;;;;16.87;12.43;;;13.40;99.90;;;;;;4831245;28;20500;-82
2022/10/29 00:40:38;;;;;;;16.60;12.43;;;12.80;99.90;;;;;;4787793;29;20662;-83
2022/10/29 01:06:23;;;;;;;16.40;13.13;;;12.50;99.90;;;;;;4836782;28;20220;-82
2022/10/29 01:10:43;;;;;;;18.30;13.10;;;12.40;99.90;;;;;;4745045;29;20880;-82
2022/10/29 02:41:53;;;;;;;16.83;11.30;;;11.40;99.90;;;;;;5912827;23;20528;-82
2022/10/29 03:07:49;;;;;;;16.47;12.00;;;10.80;99.90;;;;;;5776783;24;20441;-82
2022/10/29 03:33:06;;;;;;;15.60;12.70;;;11.00;99.90;;;;;;5668020;24;20838;-83
2022/10/29 03:37:32;;;;;;;19.53;12.70;;;11.10;99.90;;;;;;5647334;24;20502;-82
2022/10/29 04:03:27;;;;;;;13.73;11.17;;;11.40;99.90;;;;;;5537638;25;20181;-80
2022/10/29 04:29:01;;;;;;;15.83;10.33;;;11.50;99.90;;;;;;5698164;24;20191;-84
2022/10/29 04:33:23;;;;;;;13.90;10.20;;;11.40;99.90;;;;;;5625514;24;20579;-81
2022/10/29 05:09:34;;;;;;;18.20;11.30;;;11.50;99.90;;;;;;5983472;23;20162;-82
2022/10/29 05:39:57;;;;;;;16.90;8.87;;;12.20;99.90;;;;;;5822320;24;20491;-83
2022/10/29 06:04:39;;;;;;;9.60;7.37;;;13.80;98.10;;;;;;5685794;24;20808;-81
2022/10/29 06:25:30;;;;;;;13.33;7.50;;;14.40;94.10;;;;;;5687105;24;20207;-84
2022/10/29 07:11:19;;;;;;;13.23;6.90;;;15.10;92.40;;;;;;5881050;24;20179;-83
2022/10/29 08:16:46;;;;;;;15.13;8.50;;;16.20;91.70;;;;;;5878878;23;20367;-83
2022/10/29 08:37:17;;;;;;;11.47;7.73;;;16.60;92.00;;;;;;5769895;24;20765;-82
2022/10/29 09:32:56;;;;;;;14.47;9.23;;;17.30;93.10;;;;;;6044940;23;20279;31
2022/10/29 10:03:45;;;;;;;16.07;11.07;;;17.40;94.00;;;;;;5693707;24;20888;-82
2022/10/29 10:33:58;;;;;;;21.57;14.57;;;17.20;96.10;;;;;;5806492;24;20192;-85
2022/10/29 10:59:25;;;;;;;26.40;16.33;;;17.00;98.40;;;;;;5685814;24;20215;-84
2022/10/29 12:10:15;;;;;;;20.40;13.73;;;17.40;96.50;;;;;;5752732;24;20477;-85
2022/10/29 12:35:58;;;;;;;15.43;11.90;;;17.80;94.10;;;;;;5782961;24;20725;-82
2022/10/29 13:10:53;;;;;;;11.83;9.60;;;17.60;92.90;;;;;;5616068;24;21120;-82
2022/10/29 13:41:53;;;;;;;12.00;9.27;;;17.30;93.70;;;;;;5714186;24;20181;-82
2022/10/29 14:06:56;;;;;;;14.27;9.00;;;16.80;93.10;;;;;;5816513;24;20674;-84
2022/10/29 14:47:50;;;;;;;15.73;10.53;;;15.80;97.90;;;;;;5656861;24;20255;-84
2022/10/29 15:18:15;;;;;;;17.27;12.67;;;15.00;99.90;;;;;;5746503;24;20391;-86
2022/10/29 15:48:37;;;;;;;17.73;14.57;;;14.50;99.90;;;;;;5871621;24;20195;-83
2022/10/29 16:54:43;;;;;;;21.93;17.63;;;13.90;99.90;;;;;;5781065;24;20269;-83
2022/10/29 17:15:02;;;;;;;22.63;17.73;;;13.70;99.90;;;;;;5853700;23;20190;-84
2022/10/29 17:50:25;;;;;;;18.77;16.10;;;14.30;99.90;;;;;;6101732;23;20665;-84
2022/10/29 19:47:02;;;;;;;21.40;17.27;;;12.70;99.90;;;;;;5826790;24;20238;-83
2022/10/29 20:12:01;;;;;;;19.77;16.70;;;12.60;99.90;;;;;;5647902;24;20503;-83
2022/10/29 20:47:49;;;;;;;31.13;21.23;;;11.80;99.90;;;;;;5880384;23;20440;-83
2022/10/29 21:12:37;;;;;;;27.53;21.70;;;11.70;99.90;;;;;;5790779;24;20468;-84
2022/10/29 21:43:01;;;;;;;38.13;28.13;;;12.00;99.90;;;;;;5954134;23;20594;-84
2022/10/29 22:09:04;;;;;;;39.70;28.50;;;11.90;99.90;;;;;;5733230;24;20342;-84
2022/10/29 22:34:10;;;;;;;42.80;30.43;;;11.90;99.90;;;;;;5673561;24;21158;-83
